Time;durP1;ratioP1;P1;durP2;ratioP2;P2;SDS_P1;SDS_P2;PMS_P1;PMS_P2;Temp;Humidity;BMP_temperature;BMP_pressure;BME280_temperature;BME280_humidity;BME280_pressure;Samples;Min_cycle;Max_cycle;Signal;HPM_P1;HPM_P2
2022/01/09 09:40:43;;;;;;;2.17;1.97;;;1.20;99.90;;;;;;5113173;27;21077;-78
2022/01/09 09:43:09;;;;;;;4.60;3.67;;;;;;;;;;5113145;28;20462;-78
2022/01/09 09:45:36;;;;;;;4.60;3.53;;;1.40;99.90;;;;;;5111850;28;20175;-78
2022/01/09 09:48:02;;;;;;;2.90;1.90;;;1.30;99.90;;;;;;5111223;28;20429;-78
2022/01/09 09:50:27;;;;;;;5.50;3.33;;;2.30;99.90;;;;;;5110703;28;20417;-78
2022/01/09 09:52:53;;;;;;;7.60;5.13;;;1.40;99.90;;;;;;5111990;28;20233;-79
2022/01/09 09:55:19;;;;;;;8.97;6.97;;;1.20;99.90;;;;;;5114101;28;20180;-79
2022/01/09 09:57:46;;;;;;;4.60;3.10;;;1.10;99.90;;;;;;5112965;28;20176;-79
2022/01/09 10:00:16;;;;;;;3.23;1.90;;;1.10;99.90;;;;;;5114482;28;20207;-79
2022/01/09 10:02:51;;;;;;;4.33;3.53;;;1.10;99.90;;;;;;5113415;28;20428;-79
2022/01/09 10:05:34;;;;;;;3.07;2.23;;;1.10;99.90;;;;;;5114080;28;20810;-79
2022/01/09 10:08:12;;;;;;;4.03;2.30;;;1.10;99.90;;;;;;5115313;28;20397;-79
2022/01/09 10:10:39;;;;;;;6.43;2.97;;;1.10;99.90;;;;;;5115004;28;20441;-79
2022/01/09 10:13:10;;;;;;;9.70;8.33;;;1.20;99.90;;;;;;5115632;28;20818;-79
2022/01/09 10:15:55;;;;;;;3.27;2.10;;;1.30;99.90;;;;;;5127229;28;20485;-79
2022/01/09 10:18:40;;;;;;;6.20;4.67;;;1.40;99.90;;;;;;5113988;28;20465;-79
2022/01/09 10:21:11;;;;;;;8.93;4.80;;;1.40;99.90;;;;;;5113860;28;20172;-79
2022/01/09 10:23:57;;;;;;;4.57;4.17;;;1.30;99.90;;;;;;5121350;28;20405;-79
2022/01/09 10:26:23;;;;;;;11.87;7.60;;;1.30;99.90;;;;;;5135042;27;20958;-79
2022/01/09 10:28:49;;;;;;;12.63;6.00;;;1.20;99.90;;;;;;5136069;27;20428;-79
2022/01/09 10:31:16;;;;;;;2.33;1.80;;;1.10;99.90;;;;;;5135532;28;20841;-79
2022/01/09 10:34:03;;;;;;;4.57;2.90;;;1.10;99.90;;;;;;5127090;28;20180;-79
2022/01/09 10:36:42;;;;;;;2.30;1.93;;;1.10;99.90;;;;;;5115226;28;20178;-79
2022/01/09 10:39:16;;;;;;;3.17;2.27;;;1.20;99.90;;;;;;5117752;28;20461;-79
2022/01/09 10:41:56;;;;;;;3.40;2.77;;;1.20;99.90;;;;;;5117935;28;20414;-79
2022/01/09 10:44:30;;;;;;;7.97;4.77;;;1.10;99.90;;;;;;5118006;28;20421;-79
2022/01/09 10:46:58;;;;;;;5.50;2.80;;;1.10;99.90;;;;;;5114567;28;20439;-79
2022/01/09 10:49:39;;;;;;;4.73;2.43;;;1.00;99.90;;;;;;5115715;28;20454;-79
2022/01/09 10:52:15;;;;;;;2.50;1.37;;;1.10;99.90;;;;;;5104275;28;20417;-78
2022/01/09 10:54:44;;;;;;;2.03;1.50;;;1.90;99.90;;;;;;5106882;28;20491;-78
2022/01/09 10:57:19;;;;;;;4.83;2.33;;;2.40;99.90;;;;;;5105491;28;20452;-78
2022/01/09 10:59:46;;;;;;;5.80;2.60;;;3.00;99.90;;;;;;5099944;28;20257;-79
2022/01/09 11:02:12;;;;;;;8.97;3.67;;;3.20;99.90;;;;;;5098538;28;20211;-79
2022/01/09 11:04:43;;;;;;;6.90;4.00;;;3.20;99.90;;;;;;5098876;28;20181;-79
2022/01/09 11:07:10;;;;;;;2.50;1.30;;;3.30;99.90;;;;;;5098921;28;20182;-79
2022/01/09 11:09:44;;;;;;;3.10;2.50;;;3.30;99.90;;;;;;5100114;28;20250;-78
2022/01/09 11:12:10;;;;;;;3.77;1.83;;;3.40;99.90;;;;;;5098419;28;20184;-79
2022/01/09 11:14:40;;;;;;;78.93;33.43;;;3.30;99.90;;;;;;5099010;28;20185;-78
2022/01/09 11:17:08;;;;;;;5.67;3.10;;;3.00;99.90;;;;;;5100177;28;20192;-79
2022/01/09 11:19:33;;;;;;;17.77;12.33;;;3.10;99.90;;;;;;5099185;28;20205;-78
2022/01/09 11:22:05;;;;;;;5.87;4.60;;;3.60;99.90;;;;;;5098286;28;20187;-79
2022/01/09 11:25:02;;;;;;;5.90;4.20;;;3.90;99.90;;;;;;5098103;28;20200;-79
2022/01/09 11:27:27;;;;;;;7.00;3.93;;;3.90;99.90;;;;;;5101646;28;20237;-79
2022/01/09 11:29:56;;;;;;;3.40;1.90;;;4.10;99.90;;;;;;5099759;28;20229;-80
2022/01/09 11:32:33;;;;;;;6.57;3.17;;;4.70;99.90;;;;;;5102112;28;20205;-80
2022/01/09 11:35:20;;;;;;;4.07;3.17;;;4.50;99.90;;;;;;5100165;28;20196;-80
2022/01/09 11:37:53;;;;;;;8.33;4.50;;;4.00;99.90;;;;;;5099520;28;20178;-80
2022/01/09 11:40:31;;;;;;;2.90;1.67;;;3.40;99.90;;;;;;5100099;28;20227;-79
2022/01/09 11:43:05;;;;;;;15.80;9.50;;;3.20;99.90;;;;;;5100918;28;20184;-80
2022/01/09 11:45:40;;;;;;;22.20;11.10;;;3.90;99.90;;;;;;5102172;28;20198;-80
2022/01/09 11:48:06;;;;;;;6.17;3.23;;;4.20;99.90;;;;;;5100625;28;20635;-79
2022/01/09 11:50:33;;;;;;;26.50;13.73;;;3.90;99.90;;;;;;5101609;28;20193;-78
2022/01/09 11:53:01;;;;;;;13.30;8.40;;;3.50;99.90;;;;;;5099724;28;20176;-79
2022/01/09 11:55:41;;;;;;;62.63;29.87;;;3.40;99.90;;;;;;5099946;28;20188;-78
2022/01/09 11:58:09;;;;;;;348.17;158.63;;;3.30;99.90;;;;;;5099320;28;20197;-78
2022/01/09 12:00:42;;;;;;;834.70;260.83;;;4.00;99.90;;;;;;5097168;28;20201;-78
2022/01/09 12:03:26;;;;;;;17.33;8.17;;;4.20;99.90;;;;;;5096440;28;20191;-78
2022/01/09 12:06:05;;;;;;;12.37;5.70;;;3.90;99.90;;;;;;5098118;28;20178;-78
2022/01/09 12:08:53;;;;;;;6.27;3.17;;;3.50;99.90;;;;;;5098469;28;20202;-78
2022/01/09 12:11:19;;;;;;;4.20;2.60;;;2.80;99.90;;;;;;5096383;28;20176;-78
2022/01/09 12:13:47;;;;;;;15.13;4.60;;;2.50;99.90;;;;;;5097848;28;20169;-78
2022/01/09 12:16:44;;;;;;;10.27;4.37;;;2.50;99.90;;;;;;5097376;28;20169;-78
2022/01/09 12:19:10;;;;;;;10.90;3.57;;;2.50;99.90;;;;;;5096977;28;20203;-78
2022/01/09 12:21:39;;;;;;;28.87;10.27;;;2.70;99.90;;;;;;5096645;28;20183;-78
2022/01/09 12:24:40;;;;;;;187.70;61.53;;;2.80;99.90;;;;;;5096465;28;20178;-77
2022/01/09 12:27:35;;;;;;;11.47;4.63;;;2.90;99.90;;;;;;5082597;28;20274;-78
2022/01/09 12:30:02;;;;;;;5.60;2.33;;;3.10;99.90;;;;;;5089797;28;20208;-78
2022/01/09 12:32:39;;;;;;;22.03;8.73;;;3.00;99.90;;;;;;5096721;28;20690;-78
2022/01/09 12:35:16;;;;;;;14.83;6.70;;;2.90;99.90;;;;;;5097513;28;20195;-78
2022/01/09 12:37:53;;;;;;;10.30;4.77;;;2.80;99.90;;;;;;5097842;28;20193;-79
2022/01/09 12:40:24;;;;;;;68.37;27.90;;;2.90;99.90;;;;;;5097006;28;20788;-78
2022/01/09 12:42:52;;;;;;;136.97;51.23;;;2.90;99.90;;;;;;5095838;28;20231;-78
2022/01/09 12:45:19;;;;;;;17.63;7.23;;;3.10;99.90;;;;;;5095478;28;20176;-78
2022/01/09 12:47:45;;;;;;;107.73;46.23;;;3.00;99.90;;;;;;5096044;28;20668;-78
2022/01/09 12:50:10;;;;;;;16.57;8.67;;;2.90;99.90;;;;;;5097069;28;20192;-77
2022/01/09 12:52:36;;;;;;;15.60;5.17;;;2.80;99.90;;;;;;5097582;28;20172;-78
2022/01/09 12:55:07;;;;;;;12.30;4.90;;;2.70;99.90;;;;;;5100525;28;20188;-78
2022/01/09 12:57:55;;;;;;;9.40;4.17;;;2.80;99.90;;;;;;5108114;28;20176;-78
2022/01/09 13:00:29;;;;;;;14.70;5.93;;;3.00;99.90;;;;;;5103048;28;20598;-79
2022/01/09 13:02:57;;;;;;;238.00;84.40;;;3.10;99.90;;;;;;5105224;28;20175;-79
2022/01/09 13:05:27;;;;;;;4.63;2.93;;;3.10;99.90;;;;;;5096224;28;20165;-80
2022/01/09 13:08:00;;;;;;;193.53;65.77;;;3.10;99.90;;;;;;5096550;28;20168;-78
2022/01/09 13:10:30;;;;;;;14.30;5.27;;;2.80;99.90;;;;;;5096670;28;20526;-79
2022/01/09 13:13:10;;;;;;;40.47;13.57;;;2.70;99.90;;;;;;5097198;28;20172;-79
2022/01/09 13:15:39;;;;;;;130.50;45.27;;;2.60;99.90;;;;;;5095285;28;20174;-79
2022/01/09 13:18:05;;;;;;;274.13;69.97;;;2.40;99.90;;;;;;5096420;28;20197;-79
2022/01/09 13:20:32;;;;;;;111.40;29.30;;;2.40;99.90;;;;;;5095579;28;20555;-79
2022/01/09 13:23:09;;;;;;;363.70;102.83;;;2.60;99.90;;;;;;5096882;28;20410;-80
2022/01/09 13:25:46;;;;;;;44.90;14.70;;;2.30;99.90;;;;;;5095427;28;20250;-79
2022/01/09 13:28:19;;;;;;;1672.30;500.87;;;2.20;99.90;;;;;;5096497;28;20527;-79
2022/01/09 13:30:46;;;;;;;446.33;128.70;;;2.30;99.90;;;;;;5096264;28;20679;-79
2022/01/09 13:33:11;;;;;;;438.57;109.53;;;2.40;99.90;;;;;;5094241;28;20181;-78
2022/01/09 13:35:37;;;;;;;145.70;53.10;;;2.30;99.90;;;;;;5095457;28;20194;-78
2022/01/09 13:38:03;;;;;;;45.10;16.77;;;2.30;99.90;;;;;;5094395;28;20188;-78
2022/01/09 13:40:29;;;;;;;50.30;19.03;;;2.30;99.90;;;;;;5094457;28;20207;-78
2022/01/09 13:42:55;;;;;;;134.87;46.17;;;2.30;99.90;;;;;;5094947;28;20226;-77
2022/01/09 13:45:22;;;;;;;57.37;20.87;;;2.30;99.90;;;;;;5093873;28;20164;-78
2022/01/09 13:47:50;;;;;;;15.00;8.03;;;2.20;99.90;;;;;;5093900;28;20164;-77
2022/01/09 13:50:24;;;;;;;23.47;11.80;;;2.00;99.90;;;;;;5093490;28;20241;-77
2022/01/09 13:52:52;;;;;;;169.37;66.00;;;2.20;99.90;;;;;;5093500;28;20178;-77
2022/01/09 13:55:26;;;;;;;59.90;27.67;;;2.10;99.90;;;;;;5093488;28;20404;-77
2022/01/09 13:58:03;;;;;;;24.30;12.00;;;2.00;99.90;;;;;;5093594;28;20398;-77
2022/01/09 14:00:31;;;;;;;20.83;12.07;;;2.10;99.90;;;;;;5093226;28;20222;-77
2022/01/09 14:02:58;;;;;;;153.20;64.33;;;2.20;99.90;;;;;;5094565;28;20198;-81
2022/01/09 14:05:28;;;;;;;49.97;23.00;;;2.30;99.90;;;;;;5094529;28;20401;-77
2022/01/09 14:07:56;;;;;;;64.43;25.77;;;2.20;99.90;;;;;;5094330;28;20413;-78
2022/01/09 14:10:35;;;;;;;45.77;23.53;;;2.20;99.90;;;;;;5093589;28;20751;-78
2022/01/09 14:13:13;;;;;;;48.77;17.50;;;2.20;99.90;;;;;;5095058;28;20476;-78
2022/01/09 14:15:41;;;;;;;518.27;147.73;;;2.20;99.90;;;;;;5092830;28;20221;-78
2022/01/09 14:18:20;;;;;;;60.87;21.13;;;2.20;99.90;;;;;;5093443;28;20703;-77
2022/01/09 14:20:46;;;;;;;54.87;18.63;;;2.20;99.90;;;;;;5093242;28;20441;-78
2022/01/09 14:23:12;;;;;;;28.37;12.50;;;2.30;99.90;;;;;;5091961;28;20226;-78
2022/01/09 14:25:40;;;;;;;8.97;4.40;;;2.20;99.90;;;;;;5093980;28;20172;-77
2022/01/09 14:28:09;;;;;;;38.20;10.63;;;2.10;99.90;;;;;;5097003;28;20175;-77
2022/01/09 14:30:37;;;;;;;12.70;4.87;;;2.10;99.90;;;;;;5097468;28;20172;-78
2022/01/09 14:33:06;;;;;;;157.40;50.97;;;2.10;99.90;;;;;;5095777;28;20684;-78
2022/01/09 14:35:37;;;;;;;127.70;40.40;;;2.00;99.90;;;;;;5095674;28;20509;-77
2022/01/09 14:38:06;;;;;;;39.73;16.13;;;2.10;99.90;;;;;;5097145;28;20418;-78
2022/01/09 14:40:34;;;;;;;942.47;394.03;;;2.10;99.90;;;;;;5095270;28;20764;-78
2022/01/09 14:43:00;;;;;;;26.17;11.93;;;2.10;99.90;;;;;;5097297;28;20161;-78
2022/01/09 14:45:26;;;;;;;88.00;35.10;;;2.10;99.90;;;;;;5097440;28;20172;-78
2022/01/09 14:47:52;;;;;;;15.70;5.80;;;1.90;99.90;;;;;;5097362;28;20467;-78
2022/01/09 14:50:19;;;;;;;54.50;30.30;;;2.00;99.90;;;;;;5096498;28;20513;-78
2022/01/09 14:52:45;;;;;;;8.50;4.63;;;2.00;99.90;;;;;;5095705;28;20172;-78
2022/01/09 14:55:12;;;;;;;40.23;19.97;;;1.90;99.90;;;;;;5099840;28;20183;-78
2022/01/09 14:57:38;;;;;;;10.77;5.67;;;1.90;99.90;;;;;;5097212;28;20437;-78
2022/01/09 15:00:10;;;;;;;8.60;5.23;;;2.20;99.90;;;;;;5099726;28;20987;-78
2022/01/09 15:02:36;;;;;;;12.20;4.23;;;1.80;99.90;;;;;;5095547;28;20398;-78
2022/01/09 15:05:03;;;;;;;24.03;12.40;;;1.80;99.90;;;;;;5096745;28;20213;-78
2022/01/09 15:07:30;;;;;;;17.50;8.67;;;1.70;99.90;;;;;;5096667;28;20165;-78
2022/01/09 15:09:56;;;;;;;228.93;84.00;;;1.80;99.90;;;;;;5096227;28;20919;-78
2022/01/09 15:12:22;;;;;;;64.07;24.13;;;1.60;99.90;;;;;;5096420;28;20493;-77
2022/01/09 15:14:47;;;;;;;83.63;33.27;;;1.70;99.90;;;;;;5094957;28;20207;-77
2022/01/09 15:17:13;;;;;;;135.43;54.37;;;1.70;99.90;;;;;;5096665;28;20176;-78
2022/01/09 15:19:38;;;;;;;16.23;7.27;;;1.70;99.90;;;;;;5096133;28;20204;-78
2022/01/09 15:22:07;;;;;;;7.53;3.73;;;1.70;99.90;;;;;;5096167;28;20173;-78
2022/01/09 15:24:33;;;;;;;6.33;3.77;;;1.70;99.90;;;;;;5094807;28;20175;-78
2022/01/09 15:26:59;;;;;;;46.97;22.57;;;1.70;99.90;;;;;;5094874;28;20179;-77
2022/01/09 15:29:24;;;;;;;398.87;154.30;;;1.70;99.90;;;;;;5096103;28;20692;-77
2022/01/09 15:31:50;;;;;;;35.97;15.33;;;2.20;99.90;;;;;;5095680;28;20197;-77
2022/01/09 15:34:16;;;;;;;84.43;33.93;;;1.60;99.90;;;;;;5094728;28;20630;-77
2022/01/09 15:36:42;;;;;;;113.40;39.10;;;1.60;99.90;;;;;;5095668;28;20301;-78
2022/01/09 15:39:08;;;;;;;86.60;24.10;;;1.60;99.90;;;;;;5094069;28;20212;-77
2022/01/09 15:41:34;;;;;;;72.37;20.83;;;1.60;99.90;;;;;;5094385;28;20183;-78
2022/01/09 15:43:59;;;;;;;109.87;27.60;;;1.60;99.90;;;;;;5095538;28;20881;-77
2022/01/09 15:46:25;;;;;;;34.13;9.70;;;1.40;99.90;;;;;;5095589;28;20198;-77
2022/01/09 15:48:51;;;;;;;33.73;8.17;;;1.30;99.90;;;;;;5095752;28;20227;-77
2022/01/09 15:51:19;;;;;;;19.10;5.73;;;1.20;99.90;;;;;;5095419;28;20183;-76
2022/01/09 15:53:45;;;;;;;10.23;4.17;;;1.40;99.90;;;;;;5094300;28;20501;-77
2022/01/09 15:56:12;;;;;;;1091.93;269.40;;;1.10;99.90;;;;;;5095902;28;20967;-77
2022/01/09 15:58:39;;;;;;;20.60;9.63;;;1.20;99.90;;;;;;5094597;28;20457;-77
2022/01/09 16:01:05;;;;;;;355.13;68.97;;;1.40;99.90;;;;;;5097291;28;20192;-78
2022/01/09 16:03:31;;;;;;;32.23;10.77;;;;;;;;;;5097989;28;20965;-78
2022/01/09 16:05:57;;;;;;;9.80;4.53;;;1.10;99.90;;;;;;5097389;28;20403;-78
2022/01/09 16:08:25;;;;;;;160.77;35.73;;;1.10;99.90;;;;;;5096575;28;20948;-78
2022/01/09 16:10:52;;;;;;;37.83;15.87;;;1.10;99.90;;;;;;5097297;28;20176;-78
2022/01/09 16:13:18;;;;;;;267.73;55.07;;;;;;;;;;5097882;28;20414;-78
2022/01/09 16:15:45;;;;;;;36.97;17.63;;;1.00;99.90;;;;;;5098420;28;20418;-78
2022/01/09 16:18:11;;;;;;;22.73;8.33;;;0.70;99.90;;;;;;5097857;28;20184;-78
2022/01/09 16:20:40;;;;;;;41.27;13.90;;;0.80;99.90;;;;;;5098782;28;20854;-78
2022/01/09 16:23:07;;;;;;;20.20;6.57;;;0.80;99.90;;;;;;5097924;28;20176;-78
2022/01/09 16:25:32;;;;;;;391.50;89.47;;;0.70;99.90;;;;;;5100611;28;20414;-78
2022/01/09 16:27:58;;;;;;;115.33;27.70;;;0.70;99.90;;;;;;5097929;28;20421;-78
2022/01/09 16:30:24;;;;;;;73.97;18.93;;;0.80;99.90;;;;;;5097545;28;20240;-78
2022/01/09 16:32:49;;;;;;;60.33;21.00;;;0.70;99.90;;;;;;5095761;28;20180;-78
2022/01/09 16:35:16;;;;;;;11.27;4.57;;;0.60;99.90;;;;;;5095407;28;20187;-78
2022/01/09 16:37:42;;;;;;;68.90;18.50;;;0.80;99.90;;;;;;5096860;28;20179;-78
2022/01/09 16:40:08;;;;;;;130.50;30.97;;;0.60;99.90;;;;;;5096134;28;20469;-78
2022/01/09 16:42:35;;;;;;;13.10;7.63;;;0.60;99.90;;;;;;5096421;28;20668;-78
2022/01/09 16:45:01;;;;;;;1195.63;304.20;;;0.60;99.90;;;;;;5099603;28;21048;-78
2022/01/09 16:47:27;;;;;;;69.23;18.43;;;0.60;99.90;;;;;;5111832;28;20413;-78
2022/01/09 16:49:53;;;;;;;8.03;4.23;;;0.50;99.90;;;;;;5106788;28;20445;-78
2022/01/09 16:52:18;;;;;;;6.07;3.80;;;0.50;99.90;;;;;;5099387;28;20482;-78
2022/01/09 16:54:44;;;;;;;31.90;8.87;;;1.80;99.90;;;;;;5097807;28;20184;-78
2022/01/09 16:57:10;;;;;;;42.07;12.70;;;0.50;99.90;;;;;;5100274;28;20183;-78
2022/01/09 16:59:37;;;;;;;11.77;5.53;;;0.50;99.90;;;;;;5099154;28;20204;-78
2022/01/09 17:02:03;;;;;;;75.30;19.20;;;0.60;99.90;;;;;;5098813;28;20168;-78
2022/01/09 17:04:29;;;;;;;24.40;10.27;;;0.60;99.90;;;;;;5099816;28;20403;-78
2022/01/09 17:06:55;;;;;;;22.80;8.57;;;0.60;99.90;;;;;;5101428;28;20508;-78
2022/01/09 17:09:21;;;;;;;8.57;4.10;;;0.60;99.90;;;;;;5096805;28;20196;-78
2022/01/09 17:11:46;;;;;;;7.97;4.27;;;1.20;99.90;;;;;;5098538;28;20234;-77
2022/01/09 17:14:12;;;;;;;6.37;3.57;;;0.50;99.90;;;;;;5095916;28;20230;-78
2022/01/09 17:16:38;;;;;;;27.07;11.83;;;0.50;99.90;;;;;;5095178;28;20229;-78
2022/01/09 17:19:04;;;;;;;3.27;2.50;;;0.50;99.90;;;;;;5095474;28;20241;-78
2022/01/09 17:21:29;;;;;;;2.90;2.43;;;0.40;99.90;;;;;;5095775;28;20172;-77
2022/01/09 17:23:55;;;;;;;23.23;9.00;;;0.40;99.90;;;;;;5103571;28;20175;-78
2022/01/09 17:26:21;;;;;;;13.70;6.00;;;0.40;99.90;;;;;;5114991;28;20180;-78
2022/01/09 17:28:47;;;;;;;9.07;5.63;;;0.40;99.90;;;;;;5114576;28;20229;-78
2022/01/09 17:31:13;;;;;;;3.97;3.20;;;0.60;99.90;;;;;;5115427;28;20168;-78
2022/01/09 17:33:42;;;;;;;14.87;6.43;;;0.80;99.90;;;;;;5114531;28;20176;-78
2022/01/09 17:36:13;;;;;;;12.30;5.93;;;0.40;99.90;;;;;;5116189;28;20196;-78
2022/01/09 17:38:39;;;;;;;9.47;4.83;;;0.50;99.90;;;;;;5115659;28;20571;-78
2022/01/09 17:41:05;;;;;;;5.70;3.33;;;0.30;99.90;;;;;;5116279;28;20167;-78
2022/01/09 17:43:31;;;;;;;9.80;5.47;;;0.40;99.90;;;;;;5109620;28;20829;-78
2022/01/09 17:45:56;;;;;;;17.77;9.23;;;0.40;99.90;;;;;;5108637;28;20175;-78
2022/01/09 17:48:22;;;;;;;9.40;5.23;;;0.30;99.90;;;;;;5117386;28;20187;-78
2022/01/09 17:50:48;;;;;;;24.60;11.70;;;0.30;99.90;;;;;;5118722;28;20180;-78
2022/01/09 17:53:13;;;;;;;7.70;4.83;;;0.30;99.90;;;;;;5113548;28;20700;-78
2022/01/09 17:55:40;;;;;;;8.17;3.80;;;0.30;99.90;;;;;;5096579;28;20189;-78
2022/01/09 17:58:06;;;;;;;10.20;6.27;;;0.30;99.90;;;;;;5106300;28;20175;-78
2022/01/09 18:00:32;;;;;;;6.13;4.70;;;0.30;99.90;;;;;;5114910;28;20253;-78
2022/01/09 18:02:58;;;;;;;5.23;3.87;;;0.40;99.90;;;;;;5118572;28;20629;-78
2022/01/09 18:05:25;;;;;;;6.03;3.90;;;0.30;99.90;;;;;;5119656;28;20187;-78
2022/01/09 18:07:50;;;;;;;5.93;3.57;;;0.40;99.90;;;;;;5120465;28;20537;-79
2022/01/09 18:10:16;;;;;;;30.53;11.13;;;0.40;99.90;;;;;;5118069;28;20282;-78
2022/01/09 18:12:42;;;;;;;8.13;4.57;;;0.80;99.90;;;;;;5119698;28;20180;-79
2022/01/09 18:15:09;;;;;;;39.77;16.07;;;0.40;99.90;;;;;;5120274;28;20248;-79
2022/01/09 18:17:36;;;;;;;6.73;3.73;;;0.40;99.90;;;;;;5118661;28;20577;-78
2022/01/09 18:20:02;;;;;;;6.53;2.47;;;0.40;99.90;;;;;;5117311;28;20349;-78
2022/01/09 18:22:28;;;;;;;9.17;4.53;;;0.60;99.90;;;;;;5118638;27;20168;-78
2022/01/09 18:24:55;;;;;;;4.73;2.47;;;0.30;99.90;;;;;;5117214;28;20187;-78
2022/01/09 18:27:22;;;;;;;5.07;2.53;;;0.30;99.90;;;;;;5118598;28;20175;-79
2022/01/09 18:29:47;;;;;;;5.63;2.13;;;0.30;99.90;;;;;;5118976;27;20196;-78
2022/01/09 18:32:13;;;;;;;4.37;1.93;;;0.80;99.90;;;;;;5118255;28;20582;-78
2022/01/09 18:34:39;;;;;;;6.57;3.83;;;0.30;99.90;;;;;;5118881;28;20176;-80
2022/01/09 18:37:04;;;;;;;4.90;2.87;;;0.30;99.90;;;;;;5120307;28;20175;-78
2022/01/09 18:39:32;;;;;;;5.10;2.90;;;0.30;99.90;;;;;;5120877;28;20632;-78
2022/01/09 18:41:58;;;;;;;5.33;2.90;;;0.40;99.90;;;;;;5121859;28;20171;-78
2022/01/09 18:44:25;;;;;;;7.80;4.27;;;0.30;99.90;;;;;;5118323;28;20184;-77
2022/01/09 18:46:50;;;;;;;7.93;4.53;;;0.30;99.90;;;;;;5120588;28;20165;-78
2022/01/09 18:49:18;;;;;;;4.13;3.13;;;0.30;99.90;;;;;;5119692;28;20254;-78
2022/01/09 18:51:43;;;;;;;48.47;18.43;;;0.30;99.90;;;;;;5118693;28;20203;-79
2022/01/09 18:54:09;;;;;;;24.33;9.37;;;0.30;99.90;;;;;;5117036;28;20629;-78
2022/01/09 18:56:35;;;;;;;62.90;25.97;;;0.40;99.90;;;;;;5118162;28;20199;-78
2022/01/09 18:59:00;;;;;;;31.17;14.70;;;0.30;99.90;;;;;;5118006;28;20195;-78
2022/01/09 19:01:28;;;;;;;12.67;5.70;;;0.40;99.90;;;;;;5116955;28;20229;-78
2022/01/09 19:03:55;;;;;;;43.57;15.57;;;0.40;99.90;;;;;;5118710;28;20163;-78
2022/01/09 19:06:21;;;;;;;104.10;36.50;;;0.40;99.90;;;;;;5118984;28;20174;-78
2022/01/09 19:08:47;;;;;;;47.50;20.90;;;0.40;99.90;;;;;;5118653;28;20436;-78
2022/01/09 19:11:17;;;;;;;37.23;15.53;;;0.40;99.90;;;;;;5117070;28;20172;-79
2022/01/09 19:13:43;;;;;;;17.93;9.10;;;0.40;99.90;;;;;;5119265;28;20168;-78
2022/01/09 19:16:08;;;;;;;13.43;8.40;;;0.50;99.90;;;;;;5121981;28;20171;-78
2022/01/09 19:18:37;;;;;;;9.53;5.77;;;0.40;99.90;;;;;;5118214;28;20192;-78
2022/01/09 19:21:03;;;;;;;18.27;9.77;;;0.50;99.90;;;;;;5118490;27;20167;-78
2022/01/09 19:23:29;;;;;;;6.17;4.37;;;0.50;99.90;;;;;;5119250;28;20170;-78
2022/01/09 19:25:55;;;;;;;5.87;3.33;;;0.50;99.90;;;;;;5117178;28;20220;-78
2022/01/09 19:28:20;;;;;;;6.83;4.53;;;0.40;99.90;;;;;;5117282;28;20199;-78
2022/01/09 19:30:46;;;;;;;3.90;2.73;;;0.40;99.90;;;;;;5117831;28;20200;-78
2022/01/09 19:33:13;;;;;;;12.10;5.87;;;1.90;99.90;;;;;;5118087;28;20168;-78
2022/01/09 19:35:39;;;;;;;7.63;4.53;;;0.40;99.90;;;;;;5117716;28;20187;-78
2022/01/09 19:38:07;;;;;;;9.03;3.83;;;0.40;99.90;;;;;;5116976;28;20179;-78
2022/01/09 19:40:32;;;;;;;7.43;5.03;;;0.90;99.90;;;;;;5118224;28;20195;-78
2022/01/09 19:42:58;;;;;;;9.67;5.13;;;1.20;99.90;;;;;;5118446;28;20530;-78
2022/01/09 19:45:24;;;;;;;5.97;3.40;;;0.40;99.90;;;;;;5118025;28;20175;-78
2022/01/09 19:47:50;;;;;;;12.40;8.47;;;0.50;99.90;;;;;;5118577;28;20163;-78
2022/01/09 19:50:16;;;;;;;10.20;6.43;;;0.40;99.90;;;;;;5116972;28;20203;-78
2022/01/09 19:52:42;;;;;;;7.97;4.60;;;0.50;99.90;;;;;;5117722;28;20186;-79
2022/01/09 19:55:09;;;;;;;5.07;3.60;;;0.50;99.90;;;;;;5117546;28;20210;-78
2022/01/09 19:57:35;;;;;;;9.60;5.10;;;0.50;99.90;;;;;;5122370;28;20185;-80
2022/01/09 20:00:03;;;;;;;4.37;3.70;;;0.60;99.90;;;;;;5124715;28;20657;-80
2022/01/09 20:02:29;;;;;;;5.43;3.57;;;0.60;99.90;;;;;;5123739;28;20180;-78
2022/01/09 20:04:55;;;;;;;6.33;4.30;;;0.60;99.90;;;;;;5118213;28;20176;-79
2022/01/09 20:07:21;;;;;;;14.37;6.80;;;0.50;99.90;;;;;;5118690;28;20173;-79
2022/01/09 20:09:47;;;;;;;7.63;4.60;;;0.40;99.90;;;;;;5119322;28;20544;-79
2022/01/09 20:12:12;;;;;;;7.30;3.73;;;0.30;99.90;;;;;;5117850;28;20638;-79
2022/01/09 20:14:38;;;;;;;7.07;3.40;;;0.30;99.90;;;;;;5118398;28;20168;-78
2022/01/09 20:17:04;;;;;;;3.73;2.80;;;0.30;99.90;;;;;;5118693;28;20184;-79
2022/01/09 20:19:29;;;;;;;4.63;3.23;;;0.30;99.90;;;;;;5118854;28;20593;-79
2022/01/09 20:21:57;;;;;;;5.57;4.17;;;;;;;;;;5116076;28;20182;-79
2022/01/09 20:24:25;;;;;;;6.07;2.70;;;0.40;99.90;;;;;;5116773;28;20175;-79
2022/01/09 20:26:51;;;;;;;4.90;3.07;;;0.40;99.90;;;;;;5117139;28;20178;-79
2022/01/09 20:29:18;;;;;;;5.33;2.80;;;0.40;99.90;;;;;;5116942;28;20187;-78
2022/01/09 20:31:45;;;;;;;4.63;3.50;;;0.40;99.90;;;;;;5115241;28;20191;-78
2022/01/09 20:34:14;;;;;;;5.93;2.50;;;0.40;99.90;;;;;;5117238;28;20230;-78
2022/01/09 20:36:41;;;;;;;4.57;2.70;;;0.50;99.90;;;;;;5117075;28;20411;-79
2022/01/09 20:39:07;;;;;;;6.03;3.00;;;0.50;99.90;;;;;;5116654;28;20215;-79
2022/01/09 20:41:33;;;;;;;33.17;18.83;;;0.50;99.90;;;;;;5118745;28;20168;-79
2022/01/09 20:44:00;;;;;;;5.23;3.40;;;0.50;99.90;;;;;;5118688;28;20160;-79
2022/01/09 20:46:25;;;;;;;10.17;6.20;;;0.50;99.90;;;;;;5117474;28;20171;-79
2022/01/09 20:48:51;;;;;;;5.63;4.20;;;0.50;99.90;;;;;;5115746;28;20211;-79
2022/01/09 20:51:18;;;;;;;6.30;4.13;;;2.00;99.90;;;;;;5117894;28;20172;-78
2022/01/09 20:53:44;;;;;;;4.77;4.13;;;0.50;99.90;;;;;;5116383;28;20196;-77
2022/01/09 20:56:10;;;;;;;5.03;3.60;;;0.50;99.90;;;;;;5118654;28;20172;-79
2022/01/09 20:58:36;;;;;;;7.47;5.43;;;0.50;99.90;;;;;;5121474;28;20268;-79
2022/01/09 21:01:02;;;;;;;8.27;5.47;;;;;;;;;;5119061;27;20183;-79
2022/01/09 21:03:28;;;;;;;7.60;4.67;;;0.60;99.90;;;;;;5118196;28;20172;-80
2022/01/09 21:05:55;;;;;;;7.20;5.07;;;0.60;99.90;;;;;;5118076;28;20255;-79
2022/01/09 21:08:22;;;;;;;43.53;18.50;;;0.60;99.90;;;;;;5118231;28;20220;-78
2022/01/09 21:10:48;;;;;;;15.33;8.23;;;0.60;99.90;;;;;;5115889;28;20572;-79
2022/01/09 21:13:13;;;;;;;8.90;4.97;;;0.60;99.90;;;;;;5116455;28;20570;-79
2022/01/09 21:15:39;;;;;;;6.97;5.10;;;0.60;99.90;;;;;;5116897;28;20659;-79
2022/01/09 21:18:06;;;;;;;6.90;4.93;;;0.60;99.90;;;;;;5118610;28;20187;-79
2022/01/09 21:20:34;;;;;;;7.70;5.53;;;0.60;99.90;;;;;;5117882;28;20697;-79
2022/01/09 21:23:01;;;;;;;6.07;4.83;;;0.60;99.90;;;;;;5119213;28;20184;-79
2022/01/09 21:25:29;;;;;;;6.23;3.97;;;0.60;99.90;;;;;;5116965;28;20187;-82
2022/01/09 21:27:56;;;;;;;8.80;5.30;;;0.60;99.90;;;;;;5116846;28;20179;-79
2022/01/09 21:30:21;;;;;;;5.77;4.20;;;0.60;99.90;;;;;;5117877;28;20200;-79
2022/01/09 21:32:47;;;;;;;9.87;5.43;;;0.60;99.90;;;;;;5118029;28;20686;-79
2022/01/09 21:35:13;;;;;;;8.67;6.07;;;0.70;99.90;;;;;;5117805;28;20652;-78
2022/01/09 21:37:38;;;;;;;7.70;4.93;;;1.30;99.90;;;;;;5116885;28;20193;-79
2022/01/09 21:40:05;;;;;;;9.27;5.40;;;0.60;99.90;;;;;;5116305;28;20269;-78
2022/01/09 21:42:31;;;;;;;12.43;5.77;;;0.60;99.90;;;;;;5115346;28;20632;-78
2022/01/09 21:44:57;;;;;;;8.57;5.13;;;0.60;99.90;;;;;;5115710;28;20187;-79
2022/01/09 21:47:23;;;;;;;6.30;3.80;;;0.60;99.90;;;;;;5114734;28;20660;-78
2022/01/09 21:49:52;;;;;;;5.30;3.63;;;0.50;99.90;;;;;;5114506;28;20196;-78
2022/01/09 21:52:19;;;;;;;7.90;4.37;;;1.40;99.90;;;;;;5115375;28;20167;-78
2022/01/09 21:54:45;;;;;;;7.47;3.90;;;0.50;99.90;;;;;;5114966;28;20176;-78
2022/01/09 21:57:11;;;;;;;8.33;4.07;;;0.40;99.90;;;;;;5113692;28;20229;-78
2022/01/09 21:59:37;;;;;;;4.97;3.97;;;0.40;99.90;;;;;;5115017;28;20232;-78
2022/01/09 22:02:03;;;;;;;5.73;4.40;;;0.40;99.90;;;;;;5114980;28;20194;-78
2022/01/09 22:04:32;;;;;;;6.57;3.97;;;0.30;99.90;;;;;;5115266;28;20247;-78
2022/01/09 22:06:58;;;;;;;6.13;4.27;;;0.20;99.90;;;;;;5113797;28;20181;-78
2022/01/09 22:09:24;;;;;;;5.93;3.67;;;0.20;99.90;;;;;;5114986;28;20196;-78
2022/01/09 22:11:50;;;;;;;7.83;4.27;;;0.90;99.90;;;;;;5114797;28;20578;-78
2022/01/09 22:14:16;;;;;;;6.80;4.50;;;0.20;99.90;;;;;;5113984;28;20180;-79
2022/01/09 22:16:42;;;;;;;4.63;3.50;;;0.20;99.90;;;;;;5113507;28;20181;-78
2022/01/09 22:19:08;;;;;;;5.30;4.13;;;0.20;99.90;;;;;;5113288;28;20332;-78
2022/01/09 22:21:33;;;;;;;4.43;3.63;;;0.40;99.90;;;;;;5114862;28;20175;-79
2022/01/09 22:24:01;;;;;;;7.10;3.47;;;0.30;99.90;;;;;;5115396;28;20176;-78
2022/01/09 22:26:26;;;;;;;7.73;3.53;;;0.30;99.90;;;;;;5114026;28;20259;-78
2022/01/09 22:28:52;;;;;;;7.50;3.37;;;0.20;99.90;;;;;;5114773;28;20216;-78
2022/01/09 22:31:19;;;;;;;4.80;3.53;;;1.10;99.90;;;;;;5114494;28;20591;-78
2022/01/09 22:33:44;;;;;;;4.40;3.07;;;0.40;99.90;;;;;;5114943;28;20172;-78